sensor_id;sensor_type;location;lat;lon;timestamp;P1;durP1;ratioP1;P2;durP2;ratioP2
21675;SDS011;10999;51.332;9.458;2023-02-11T00:01:05;40.88;;;16.48;;
21675;SDS011;10999;51.332;9.458;2023-02-11T00:03:36;39.35;;;17.50;;
21675;SDS011;10999;51.332;9.458;2023-02-11T00:06:04;40.50;;;17.60;;
21675;SDS011;10999;51.332;9.458;2023-02-11T00:08:35;46.00;;;17.25;;
21675;SDS011;10999;51.332;9.458;2023-02-11T00:11:02;45.47;;;18.33;;
21675;SDS011;10999;51.332;9.458;2023-02-11T00:13:29;40.45;;;17.10;;
21675;SDS011;10999;51.332;9.458;2023-02-11T00:15:56;40.95;;;17.60;;
21675;SDS011;10999;51.332;9.458;2023-02-11T00:18:22;42.92;;;17.42;;
21675;SDS011;10999;51.332;9.458;2023-02-11T00:20:49;41.53;;;16.90;;
21675;SDS011;10999;51.332;9.458;2023-02-11T00:23:16;42.47;;;17.55;;
21675;SDS011;10999;51.332;9.458;2023-02-11T00:25:43;44.55;;;17.92;;
21675;SDS011;10999;51.332;9.458;2023-02-11T00:28:10;46.60;;;18.95;;
21675;SDS011;10999;51.332;9.458;2023-02-11T00:30:37;42.83;;;19.05;;
21675;SDS011;10999;51.332;9.458;2023-02-11T00:33:04;49.00;;;19.05;;
21675;SDS011;10999;51.332;9.458;2023-02-11T00:35:31;42.13;;;17.83;;
21675;SDS011;10999;51.332;9.458;2023-02-11T00:37:58;40.00;;;16.45;;
21675;SDS011;10999;51.332;9.458;2023-02-11T00:40:24;47.00;;;18.30;;
21675;SDS011;10999;51.332;9.458;2023-02-11T00:42:51;40.30;;;17.23;;
21675;SDS011;10999;51.332;9.458;2023-02-11T00:45:18;39.85;;;15.65;;
21675;SDS011;10999;51.332;9.458;2023-02-11T00:47:46;45.65;;;17.35;;
21675;SDS011;10999;51.332;9.458;2023-02-11T00:50:13;43.10;;;17.33;;
21675;SDS011;10999;51.332;9.458;2023-02-11T00:52:39;41.70;;;18.15;;
21675;SDS011;10999;51.332;9.458;2023-02-11T00:55:06;46.33;;;17.65;;
21675;SDS011;10999;51.332;9.458;2023-02-11T00:57:33;40.22;;;18.35;;
21675;SDS011;10999;51.332;9.458;2023-02-11T01:00:00;44.40;;;18.80;;
21675;SDS011;10999;51.332;9.458;2023-02-11T01:02:26;44.88;;;17.20;;
21675;SDS011;10999;51.332;9.458;2023-02-11T01:04:53;49.60;;;18.55;;
21675;SDS011;10999;51.332;9.458;2023-02-11T01:07:20;42.08;;;16.88;;
21675;SDS011;10999;51.332;9.458;2023-02-11T01:09:47;43.90;;;17.42;;
21675;SDS011;10999;51.332;9.458;2023-02-11T01:12:13;43.70;;;17.17;;
21675;SDS011;10999;51.332;9.458;2023-02-11T01:14:40;42.58;;;18.08;;
21675;SDS011;10999;51.332;9.458;2023-02-11T01:17:07;45.63;;;16.83;;
21675;SDS011;10999;51.332;9.458;2023-02-11T01:19:35;47.90;;;19.27;;
21675;SDS011;10999;51.332;9.458;2023-02-11T01:22:02;43.22;;;18.83;;
21675;SDS011;10999;51.332;9.458;2023-02-11T01:24:29;47.75;;;18.67;;
21675;SDS011;10999;51.332;9.458;2023-02-11T01:26:56;49.78;;;18.90;;
21675;SDS011;10999;51.332;9.458;2023-02-11T01:29:23;43.30;;;17.45;;
21675;SDS011;10999;51.332;9.458;2023-02-11T01:31:50;45.67;;;18.55;;
21675;SDS011;10999;51.332;9.458;2023-02-11T01:34:17;46.88;;;19.40;;
21675;SDS011;10999;51.332;9.458;2023-02-11T01:36:44;42.88;;;17.80;;
21675;SDS011;10999;51.332;9.458;2023-02-11T01:39:10;41.28;;;17.65;;
21675;SDS011;10999;51.332;9.458;2023-02-11T01:41:37;43.97;;;16.75;;
21675;SDS011;10999;51.332;9.458;2023-02-11T01:46:57;35.33;;;16.38;;
21675;SDS011;10999;51.332;9.458;2023-02-11T01:49:31;45.20;;;16.95;;
21675;SDS011;10999;51.332;9.458;2023-02-11T01:52:10;45.15;;;17.08;;
21675;SDS011;10999;51.332;9.458;2023-02-11T01:54:46;42.42;;;18.15;;
21675;SDS011;10999;51.332;9.458;2023-02-11T01:57:35;49.08;;;18.80;;
21675;SDS011;10999;51.332;9.458;2023-02-11T02:03:02;43.70;;;17.35;;
21675;SDS011;10999;51.332;9.458;2023-02-11T02:05:40;41.80;;;16.77;;
21675;SDS011;10999;51.332;9.458;2023-02-11T02:08:41;47.20;;;18.85;;
21675;SDS011;10999;51.332;9.458;2023-02-11T02:11:12;44.03;;;18.25;;
21675;SDS011;10999;51.332;9.458;2023-02-11T02:13:39;47.42;;;18.95;;
21675;SDS011;10999;51.332;9.458;2023-02-11T02:16:12;44.05;;;17.63;;
21675;SDS011;10999;51.332;9.458;2023-02-11T02:18:47;50.45;;;20.10;;
21675;SDS011;10999;51.332;9.458;2023-02-11T02:27:36;48.47;;;18.98;;
21675;SDS011;10999;51.332;9.458;2023-02-11T02:33:17;45.28;;;17.33;;
21675;SDS011;10999;51.332;9.458;2023-02-11T02:36:01;44.53;;;19.52;;
21675;SDS011;10999;51.332;9.458;2023-02-11T02:41:11;52.67;;;20.60;;
21675;SDS011;10999;51.332;9.458;2023-02-11T02:43:41;51.53;;;19.45;;
21675;SDS011;10999;51.332;9.458;2023-02-11T02:46:16;42.03;;;18.48;;
21675;SDS011;10999;51.332;9.458;2023-02-11T02:48:49;53.08;;;19.40;;
21675;SDS011;10999;51.332;9.458;2023-02-11T02:54:28;47.85;;;19.33;;
21675;SDS011;10999;51.332;9.458;2023-02-11T03:02:57;50.67;;;19.45;;
21675;SDS011;10999;51.332;9.458;2023-02-11T03:05:47;46.60;;;19.08;;
21675;SDS011;10999;51.332;9.458;2023-02-11T03:10:51;51.65;;;21.23;;
21675;SDS011;10999;51.332;9.458;2023-02-11T03:13:20;51.83;;;19.52;;
21675;SDS011;10999;51.332;9.458;2023-02-11T03:15:52;55.65;;;20.30;;
21675;SDS011;10999;51.332;9.458;2023-02-11T03:18:23;56.60;;;20.83;;
21675;SDS011;10999;51.332;9.458;2023-02-11T03:20:52;47.65;;;19.95;;
21675;SDS011;10999;51.332;9.458;2023-02-11T03:23:22;46.00;;;18.17;;
21675;SDS011;10999;51.332;9.458;2023-02-11T03:25:52;47.90;;;20.38;;
21675;SDS011;10999;51.332;9.458;2023-02-11T03:28:43;52.40;;;20.25;;
21675;SDS011;10999;51.332;9.458;2023-02-11T03:34:18;48.40;;;19.50;;
21675;SDS011;10999;51.332;9.458;2023-02-11T03:37:11;49.25;;;20.45;;
21675;SDS011;10999;51.332;9.458;2023-02-11T03:39:44;52.65;;;19.67;;
21675;SDS011;10999;51.332;9.458;2023-02-11T03:42:16;49.13;;;19.98;;
21675;SDS011;10999;51.332;9.458;2023-02-11T03:44:49;47.67;;;19.52;;
21675;SDS011;10999;51.332;9.458;2023-02-11T03:47:22;56.75;;;22.02;;
21675;SDS011;10999;51.332;9.458;2023-02-11T03:49:53;53.30;;;20.23;;
21675;SDS011;10999;51.332;9.458;2023-02-11T03:52:22;49.05;;;19.83;;
21675;SDS011;10999;51.332;9.458;2023-02-11T03:54:52;47.17;;;19.48;;
21675;SDS011;10999;51.332;9.458;2023-02-11T03:57:22;47.40;;;19.27;;
21675;SDS011;10999;51.332;9.458;2023-02-11T03:59:53;46.53;;;18.88;;
21675;SDS011;10999;51.332;9.458;2023-02-11T04:02:21;45.35;;;18.52;;
21675;SDS011;10999;51.332;9.458;2023-02-11T04:04:52;48.65;;;19.30;;
21675;SDS011;10999;51.332;9.458;2023-02-11T04:07:19;47.28;;;18.58;;
21675;SDS011;10999;51.332;9.458;2023-02-11T04:09:46;45.05;;;18.73;;
21675;SDS011;10999;51.332;9.458;2023-02-11T04:12:12;45.15;;;19.73;;
21675;SDS011;10999;51.332;9.458;2023-02-11T04:14:39;44.67;;;18.45;;
21675;SDS011;10999;51.332;9.458;2023-02-11T04:17:06;48.13;;;19.85;;
21675;SDS011;10999;51.332;9.458;2023-02-11T04:19:32;44.55;;;18.80;;
21675;SDS011;10999;51.332;9.458;2023-02-11T04:21:59;43.13;;;17.83;;
21675;SDS011;10999;51.332;9.458;2023-02-11T04:24:26;45.72;;;19.08;;
21675;SDS011;10999;51.332;9.458;2023-02-11T04:26:53;39.77;;;17.43;;
21675;SDS011;10999;51.332;9.458;2023-02-11T04:29:20;49.63;;;20.00;;
21675;SDS011;10999;51.332;9.458;2023-02-11T04:31:46;50.03;;;19.88;;
21675;SDS011;10999;51.332;9.458;2023-02-11T04:34:13;47.75;;;18.45;;
21675;SDS011;10999;51.332;9.458;2023-02-11T04:36:40;48.53;;;20.13;;
21675;SDS011;10999;51.332;9.458;2023-02-11T04:39:07;47.22;;;19.50;;
21675;SDS011;10999;51.332;9.458;2023-02-11T04:41:34;48.00;;;19.90;;
21675;SDS011;10999;51.332;9.458;2023-02-11T04:44:01;48.72;;;18.98;;
21675;SDS011;10999;51.332;9.458;2023-02-11T04:46:28;45.08;;;19.75;;
21675;SDS011;10999;51.332;9.458;2023-02-11T04:48:55;48.97;;;20.42;;
21675;SDS011;10999;51.332;9.458;2023-02-11T04:51:22;48.58;;;18.13;;
21675;SDS011;10999;51.332;9.458;2023-02-11T04:53:49;49.28;;;19.70;;
21675;SDS011;10999;51.332;9.458;2023-02-11T04:56:15;46.83;;;18.65;;
21675;SDS011;10999;51.332;9.458;2023-02-11T04:58:42;41.78;;;19.17;;
21675;SDS011;10999;51.332;9.458;2023-02-11T05:01:10;46.17;;;19.83;;
21675;SDS011;10999;51.332;9.458;2023-02-11T05:03:38;43.78;;;18.30;;
21675;SDS011;10999;51.332;9.458;2023-02-11T05:06:05;46.67;;;17.85;;
21675;SDS011;10999;51.332;9.458;2023-02-11T05:08:32;45.40;;;18.83;;
21675;SDS011;10999;51.332;9.458;2023-02-11T05:10:58;46.35;;;19.25;;
21675;SDS011;10999;51.332;9.458;2023-02-11T05:13:27;41.22;;;17.02;;
21675;SDS011;10999;51.332;9.458;2023-02-11T05:15:54;50.97;;;19.45;;
21675;SDS011;10999;51.332;9.458;2023-02-11T05:18:21;45.80;;;20.33;;
21675;SDS011;10999;51.332;9.458;2023-02-11T05:20:48;44.47;;;20.02;;
21675;SDS011;10999;51.332;9.458;2023-02-11T05:23:15;50.25;;;18.55;;
21675;SDS011;10999;51.332;9.458;2023-02-11T05:25:42;39.53;;;17.27;;
21675;SDS011;10999;51.332;9.458;2023-02-11T05:28:08;46.00;;;18.80;;
21675;SDS011;10999;51.332;9.458;2023-02-11T05:30:35;46.60;;;18.65;;
21675;SDS011;10999;51.332;9.458;2023-02-11T05:33:02;44.47;;;18.15;;
21675;SDS011;10999;51.332;9.458;2023-02-11T05:35:29;39.60;;;17.35;;
21675;SDS011;10999;51.332;9.458;2023-02-11T05:37:55;49.42;;;18.30;;
21675;SDS011;10999;51.332;9.458;2023-02-11T05:40:22;47.83;;;18.10;;
21675;SDS011;10999;51.332;9.458;2023-02-11T05:42:48;45.22;;;19.17;;
21675;SDS011;10999;51.332;9.458;2023-02-11T05:45:15;45.58;;;18.90;;
21675;SDS011;10999;51.332;9.458;2023-02-11T05:47:42;49.15;;;19.63;;
21675;SDS011;10999;51.332;9.458;2023-02-11T05:50:09;43.22;;;18.63;;
21675;SDS011;10999;51.332;9.458;2023-02-11T05:52:35;48.60;;;18.10;;
21675;SDS011;10999;51.332;9.458;2023-02-11T05:55:02;45.95;;;18.55;;
21675;SDS011;10999;51.332;9.458;2023-02-11T05:57:29;42.50;;;16.48;;
21675;SDS011;10999;51.332;9.458;2023-02-11T05:59:56;45.78;;;18.98;;
21675;SDS011;10999;51.332;9.458;2023-02-11T06:02:22;45.55;;;18.05;;
21675;SDS011;10999;51.332;9.458;2023-02-11T06:04:49;45.45;;;17.92;;
21675;SDS011;10999;51.332;9.458;2023-02-11T06:07:16;46.28;;;17.98;;
21675;SDS011;10999;51.332;9.458;2023-02-11T06:09:44;45.33;;;18.38;;
21675;SDS011;10999;51.332;9.458;2023-02-11T06:12:11;43.05;;;17.85;;
21675;SDS011;10999;51.332;9.458;2023-02-11T06:14:38;44.58;;;17.73;;
21675;SDS011;10999;51.332;9.458;2023-02-11T06:17:04;46.13;;;18.15;;
21675;SDS011;10999;51.332;9.458;2023-02-11T06:19:31;43.15;;;18.80;;
21675;SDS011;10999;51.332;9.458;2023-02-11T06:21:58;49.38;;;19.33;;
21675;SDS011;10999;51.332;9.458;2023-02-11T06:24:25;45.10;;;18.23;;
21675;SDS011;10999;51.332;9.458;2023-02-11T06:27:11;47.05;;;16.90;;
21675;SDS011;10999;51.332;9.458;2023-02-11T06:29:38;43.13;;;17.92;;
21675;SDS011;10999;51.332;9.458;2023-02-11T06:32:05;45.40;;;17.48;;
21675;SDS011;10999;51.332;9.458;2023-02-11T06:34:36;40.67;;;17.77;;
21675;SDS011;10999;51.332;9.458;2023-02-11T06:37:03;40.28;;;17.17;;
21675;SDS011;10999;51.332;9.458;2023-02-11T06:39:30;42.45;;;17.42;;
21675;SDS011;10999;51.332;9.458;2023-02-11T06:41:57;39.15;;;17.30;;
21675;SDS011;10999;51.332;9.458;2023-02-11T06:44:24;44.60;;;18.30;;
21675;SDS011;10999;51.332;9.458;2023-02-11T06:46:51;39.80;;;16.52;;
21675;SDS011;10999;51.332;9.458;2023-02-11T06:49:18;52.75;;;18.92;;
21675;SDS011;10999;51.332;9.458;2023-02-11T06:51:45;43.38;;;19.02;;
21675;SDS011;10999;51.332;9.458;2023-02-11T06:54:11;43.25;;;18.55;;
21675;SDS011;10999;51.332;9.458;2023-02-11T06:56:39;41.83;;;17.58;;
21675;SDS011;10999;51.332;9.458;2023-02-11T06:59:06;44.97;;;18.25;;
21675;SDS011;10999;51.332;9.458;2023-02-11T07:01:32;42.92;;;18.05;;
21675;SDS011;10999;51.332;9.458;2023-02-11T07:03:59;48.38;;;18.08;;
21675;SDS011;10999;51.332;9.458;2023-02-11T07:06:26;45.45;;;17.58;;
21675;SDS011;10999;51.332;9.458;2023-02-11T07:08:53;49.30;;;19.45;;
21675;SDS011;10999;51.332;9.458;2023-02-11T07:11:21;47.20;;;17.73;;
21675;SDS011;10999;51.332;9.458;2023-02-11T07:13:50;46.10;;;18.20;;
21675;SDS011;10999;51.332;9.458;2023-02-11T07:16:18;49.60;;;19.42;;
21675;SDS011;10999;51.332;9.458;2023-02-11T07:18:45;50.25;;;17.25;;
21675;SDS011;10999;51.332;9.458;2023-02-11T07:21:14;50.67;;;18.50;;
21675;SDS011;10999;51.332;9.458;2023-02-11T07:23:43;42.55;;;16.15;;
21675;SDS011;10999;51.332;9.458;2023-02-11T07:26:11;47.90;;;19.00;;
21675;SDS011;10999;51.332;9.458;2023-02-11T07:28:39;52.03;;;18.65;;
21675;SDS011;10999;51.332;9.458;2023-02-11T07:31:07;44.40;;;18.73;;
21675;SDS011;10999;51.332;9.458;2023-02-11T07:33:36;42.40;;;16.67;;
21675;SDS011;10999;51.332;9.458;2023-02-11T07:36:04;46.78;;;17.67;;
21675;SDS011;10999;51.332;9.458;2023-02-11T07:38:32;43.47;;;17.13;;
21675;SDS011;10999;51.332;9.458;2023-02-11T07:41:00;43.45;;;17.02;;
21675;SDS011;10999;51.332;9.458;2023-02-11T07:43:27;42.30;;;17.13;;
21675;SDS011;10999;51.332;9.458;2023-02-11T07:45:55;40.38;;;18.10;;
21675;SDS011;10999;51.332;9.458;2023-02-11T07:48:24;46.65;;;18.80;;
21675;SDS011;10999;51.332;9.458;2023-02-11T07:50:50;36.58;;;16.98;;
21675;SDS011;10999;51.332;9.458;2023-02-11T07:53:17;43.30;;;16.77;;
21675;SDS011;10999;51.332;9.458;2023-02-11T07:55:44;42.42;;;17.58;;
21675;SDS011;10999;51.332;9.458;2023-02-11T07:58:11;45.65;;;17.33;;
21675;SDS011;10999;51.332;9.458;2023-02-11T08:00:37;47.28;;;17.48;;
21675;SDS011;10999;51.332;9.458;2023-02-11T08:03:04;43.08;;;17.25;;
21675;SDS011;10999;51.332;9.458;2023-02-11T08:05:36;41.58;;;18.83;;
21675;SDS011;10999;51.332;9.458;2023-02-11T08:08:03;40.40;;;17.60;;
21675;SDS011;10999;51.332;9.458;2023-02-11T08:10:30;46.25;;;18.67;;
21675;SDS011;10999;51.332;9.458;2023-02-11T08:12:57;44.05;;;19.15;;
21675;SDS011;10999;51.332;9.458;2023-02-11T08:15:23;49.58;;;19.58;;
21675;SDS011;10999;51.332;9.458;2023-02-11T08:17:50;40.75;;;17.52;;
21675;SDS011;10999;51.332;9.458;2023-02-11T08:20:17;47.88;;;18.63;;
21675;SDS011;10999;51.332;9.458;2023-02-11T08:22:43;42.58;;;18.38;;
21675;SDS011;10999;51.332;9.458;2023-02-11T08:25:10;46.13;;;17.83;;
21675;SDS011;10999;51.332;9.458;2023-02-11T08:27:37;51.40;;;18.73;;
21675;SDS011;10999;51.332;9.458;2023-02-11T08:30:04;45.88;;;18.23;;
21675;SDS011;10999;51.332;9.458;2023-02-11T08:32:32;39.03;;;17.42;;
21675;SDS011;10999;51.332;9.458;2023-02-11T08:35:00;46.05;;;18.73;;
21675;SDS011;10999;51.332;9.458;2023-02-11T08:37:27;49.65;;;18.65;;
21675;SDS011;10999;51.332;9.458;2023-02-11T08:39:54;48.30;;;18.30;;
21675;SDS011;10999;51.332;9.458;2023-02-11T08:42:21;46.60;;;18.65;;
21675;SDS011;10999;51.332;9.458;2023-02-11T08:44:48;46.58;;;18.17;;
21675;SDS011;10999;51.332;9.458;2023-02-11T08:47:14;46.53;;;19.40;;
21675;SDS011;10999;51.332;9.458;2023-02-11T08:49:41;45.15;;;17.85;;
21675;SDS011;10999;51.332;9.458;2023-02-11T08:52:08;38.80;;;17.08;;
21675;SDS011;10999;51.332;9.458;2023-02-11T08:54:35;48.17;;;18.92;;
21675;SDS011;10999;51.332;9.458;2023-02-11T08:57:02;47.85;;;18.90;;
21675;SDS011;10999;51.332;9.458;2023-02-11T08:59:29;48.63;;;19.73;;
21675;SDS011;10999;51.332;9.458;2023-02-11T09:01:56;43.13;;;18.05;;
21675;SDS011;10999;51.332;9.458;2023-02-11T09:04:23;44.70;;;17.80;;
21675;SDS011;10999;51.332;9.458;2023-02-11T09:06:50;41.35;;;18.27;;
21675;SDS011;10999;51.332;9.458;2023-02-11T09:09:16;43.92;;;18.42;;
21675;SDS011;10999;51.332;9.458;2023-02-11T09:11:43;46.92;;;17.25;;
21675;SDS011;10999;51.332;9.458;2023-02-11T09:14:20;46.67;;;19.25;;
21675;SDS011;10999;51.332;9.458;2023-02-11T09:16:47;43.00;;;18.88;;
21675;SDS011;10999;51.332;9.458;2023-02-11T09:19:14;45.22;;;17.65;;
21675;SDS011;10999;51.332;9.458;2023-02-11T09:21:42;42.38;;;18.25;;
21675;SDS011;10999;51.332;9.458;2023-02-11T09:24:09;45.63;;;19.15;;
21675;SDS011;10999;51.332;9.458;2023-02-11T09:26:37;42.45;;;17.30;;
21675;SDS011;10999;51.332;9.458;2023-02-11T09:29:07;48.22;;;20.50;;
21675;SDS011;10999;51.332;9.458;2023-02-11T09:31:34;42.45;;;18.95;;
21675;SDS011;10999;51.332;9.458;2023-02-11T09:34:02;42.58;;;17.30;;
21675;SDS011;10999;51.332;9.458;2023-02-11T09:36:32;42.17;;;18.95;;
21675;SDS011;10999;51.332;9.458;2023-02-11T09:39:03;43.35;;;17.83;;
21675;SDS011;10999;51.332;9.458;2023-02-11T09:41:34;43.60;;;17.42;;
21675;SDS011;10999;51.332;9.458;2023-02-11T09:44:19;49.03;;;18.85;;
21675;SDS011;10999;51.332;9.458;2023-02-11T09:46:53;41.60;;;17.73;;
21675;SDS011;10999;51.332;9.458;2023-02-11T09:49:40;40.78;;;17.30;;
21675;SDS011;10999;51.332;9.458;2023-02-11T09:55:16;51.80;;;17.45;;
21675;SDS011;10999;51.332;9.458;2023-02-11T09:57:46;44.70;;;16.90;;
21675;SDS011;10999;51.332;9.458;2023-02-11T10:00:18;43.47;;;18.42;;
21675;SDS011;10999;51.332;9.458;2023-02-11T10:03:13;44.17;;;17.00;;
21675;SDS011;10999;51.332;9.458;2023-02-11T10:06:06;39.63;;;17.17;;
21675;SDS011;10999;51.332;9.458;2023-02-11T10:09:00;39.92;;;18.65;;
21675;SDS011;10999;51.332;9.458;2023-02-11T10:14:31;37.95;;;16.75;;
21675;SDS011;10999;51.332;9.458;2023-02-11T10:17:28;44.55;;;17.52;;
21675;SDS011;10999;51.332;9.458;2023-02-11T10:20:07;39.55;;;17.70;;
21675;SDS011;10999;51.332;9.458;2023-02-11T10:25:47;34.97;;;16.50;;
21675;SDS011;10999;51.332;9.458;2023-02-11T10:28:20;38.92;;;16.88;;
21675;SDS011;10999;51.332;9.458;2023-02-11T10:30:53;42.50;;;16.77;;
21675;SDS011;10999;51.332;9.458;2023-02-11T10:33:29;43.03;;;17.65;;
21675;SDS011;10999;51.332;9.458;2023-02-11T10:36:02;38.78;;;17.70;;
21675;SDS011;10999;51.332;9.458;2023-02-11T10:38:30;38.50;;;16.88;;
21675;SDS011;10999;51.332;9.458;2023-02-11T10:40:58;43.78;;;17.65;;
21675;SDS011;10999;51.332;9.458;2023-02-11T10:43:26;43.17;;;18.15;;
21675;SDS011;10999;51.332;9.458;2023-02-11T10:45:58;43.15;;;17.35;;
21675;SDS011;10999;51.332;9.458;2023-02-11T10:53:39;40.17;;;16.10;;
21675;SDS011;10999;51.332;9.458;2023-02-11T10:56:06;40.05;;;17.45;;
21675;SDS011;10999;51.332;9.458;2023-02-11T10:58:43;39.25;;;17.88;;
21675;SDS011;10999;51.332;9.458;2023-02-11T11:01:20;41.58;;;17.08;;
21675;SDS011;10999;51.332;9.458;2023-02-11T11:03:50;41.90;;;17.13;;
21675;SDS011;10999;51.332;9.458;2023-02-11T11:06:27;42.08;;;17.55;;
21675;SDS011;10999;51.332;9.458;2023-02-11T11:08:56;36.38;;;16.35;;
21675;SDS011;10999;51.332;9.458;2023-02-11T11:11:24;44.95;;;18.77;;
21675;SDS011;10999;51.332;9.458;2023-02-11T11:16:19;42.58;;;17.60;;
21675;SDS011;10999;51.332;9.458;2023-02-11T11:18:48;42.45;;;16.98;;
21675;SDS011;10999;51.332;9.458;2023-02-11T11:21:18;40.17;;;16.38;;
21675;SDS011;10999;51.332;9.458;2023-02-11T11:23:49;45.60;;;17.25;;
21675;SDS011;10999;51.332;9.458;2023-02-11T11:26:18;42.72;;;17.17;;
21675;SDS011;10999;51.332;9.458;2023-02-11T11:28:51;40.80;;;17.08;;
21675;SDS011;10999;51.332;9.458;2023-02-11T11:31:29;40.95;;;18.42;;
21675;SDS011;10999;51.332;9.458;2023-02-11T11:33:59;45.97;;;17.95;;
21675;SDS011;10999;51.332;9.458;2023-02-11T11:36:35;44.20;;;20.55;;
21675;SDS011;10999;51.332;9.458;2023-02-11T11:39:23;41.70;;;16.33;;
21675;SDS011;10999;51.332;9.458;2023-02-11T11:42:27;39.97;;;16.05;;
21675;SDS011;10999;51.332;9.458;2023-02-11T11:45:03;36.42;;;15.85;;
21675;SDS011;10999;51.332;9.458;2023-02-11T11:50:26;45.40;;;17.45;;
21675;SDS011;10999;51.332;9.458;2023-02-11T11:53:00;40.80;;;16.42;;
21675;SDS011;10999;51.332;9.458;2023-02-11T11:58:28;44.00;;;17.02;;
21675;SDS011;10999;51.332;9.458;2023-02-11T12:04:03;38.65;;;15.98;;
21675;SDS011;10999;51.332;9.458;2023-02-11T12:09:41;40.03;;;16.35;;
21675;SDS011;10999;51.332;9.458;2023-02-11T12:15:31;36.65;;;15.23;;
21675;SDS011;10999;51.332;9.458;2023-02-11T12:20:43;42.35;;;17.80;;
21675;SDS011;10999;51.332;9.458;2023-02-11T12:23:37;40.85;;;16.10;;
21675;SDS011;10999;51.332;9.458;2023-02-11T12:26:15;38.05;;;16.80;;
21675;SDS011;10999;51.332;9.458;2023-02-11T12:31:52;37.70;;;15.93;;
21675;SDS011;10999;51.332;9.458;2023-02-11T12:34:41;36.58;;;15.98;;
21675;SDS011;10999;51.332;9.458;2023-02-11T13:00:02;37.80;;;15.95;;
21675;SDS011;10999;51.332;9.458;2023-02-11T13:05:42;34.88;;;16.38;;
21675;SDS011;10999;51.332;9.458;2023-02-11T13:08:28;36.08;;;16.13;;
21675;SDS011;10999;51.332;9.458;2023-02-11T13:11:02;42.58;;;16.52;;
21675;SDS011;10999;51.332;9.458;2023-02-11T13:13:35;35.72;;;15.20;;
21675;SDS011;10999;51.332;9.458;2023-02-11T13:18:51;38.60;;;15.50;;
21675;SDS011;10999;51.332;9.458;2023-02-11T13:27:42;33.08;;;14.90;;
21675;SDS011;10999;51.332;9.458;2023-02-11T13:30:27;34.17;;;16.20;;
21675;SDS011;10999;51.332;9.458;2023-02-11T13:35:30;36.75;;;16.13;;
21675;SDS011;10999;51.332;9.458;2023-02-11T13:38:04;36.55;;;15.65;;
21675;SDS011;10999;51.332;9.458;2023-02-11T13:43:55;38.78;;;18.10;;
21675;SDS011;10999;51.332;9.458;2023-02-11T13:48:54;33.15;;;14.02;;
21675;SDS011;10999;51.332;9.458;2023-02-11T13:51:37;34.50;;;15.40;;
21675;SDS011;10999;51.332;9.458;2023-02-11T13:54:07;33.70;;;15.25;;
21675;SDS011;10999;51.332;9.458;2023-02-11T13:57:13;35.67;;;14.15;;
21675;SDS011;10999;51.332;9.458;2023-02-11T13:59:49;29.45;;;13.38;;
21675;SDS011;10999;51.332;9.458;2023-02-11T14:11:02;36.38;;;15.23;;
21675;SDS011;10999;51.332;9.458;2023-02-11T14:16:28;34.65;;;14.18;;
21675;SDS011;10999;51.332;9.458;2023-02-11T14:19:04;33.80;;;15.38;;
21675;SDS011;10999;51.332;9.458;2023-02-11T14:21:35;34.15;;;15.75;;
21675;SDS011;10999;51.332;9.458;2023-02-11T14:26:49;33.92;;;13.57;;
21675;SDS011;10999;51.332;9.458;2023-02-11T14:30:38;33.40;;;15.27;;
21675;SDS011;10999;51.332;9.458;2023-02-11T14:35:42;30.13;;;12.65;;
21675;SDS011;10999;51.332;9.458;2023-02-11T14:38:44;33.78;;;14.27;;
21675;SDS011;10999;51.332;9.458;2023-02-11T14:41:40;32.85;;;14.40;;
21675;SDS011;10999;51.332;9.458;2023-02-11T14:44:16;34.40;;;14.23;;
21675;SDS011;10999;51.332;9.458;2023-02-11T14:46:47;28.95;;;13.30;;
21675;SDS011;10999;51.332;9.458;2023-02-11T14:49:26;34.25;;;15.40;;
21675;SDS011;10999;51.332;9.458;2023-02-11T14:52:05;31.25;;;13.40;;
21675;SDS011;10999;51.332;9.458;2023-02-11T14:54:51;34.38;;;14.40;;
21675;SDS011;10999;51.332;9.458;2023-02-11T14:57:39;29.55;;;13.75;;
21675;SDS011;10999;51.332;9.458;2023-02-11T15:00:14;36.05;;;15.63;;
21675;SDS011;10999;51.332;9.458;2023-02-11T15:02:43;38.35;;;16.80;;
21675;SDS011;10999;51.332;9.458;2023-02-11T15:07:46;44.08;;;18.08;;
21675;SDS011;10999;51.332;9.458;2023-02-11T15:10:16;36.90;;;16.80;;
21675;SDS011;10999;51.332;9.458;2023-02-11T15:12:46;38.83;;;17.45;;
21675;SDS011;10999;51.332;9.458;2023-02-11T15:15:14;38.55;;;17.63;;
21675;SDS011;10999;51.332;9.458;2023-02-11T15:17:41;36.53;;;15.95;;
21675;SDS011;10999;51.332;9.458;2023-02-11T15:20:23;32.47;;;15.15;;
21675;SDS011;10999;51.332;9.458;2023-02-11T15:23:00;31.35;;;15.18;;
21675;SDS011;10999;51.332;9.458;2023-02-11T15:25:30;38.72;;;16.52;;
21675;SDS011;10999;51.332;9.458;2023-02-11T15:27:59;35.05;;;15.85;;
21675;SDS011;10999;51.332;9.458;2023-02-11T15:30:28;35.88;;;15.98;;
21675;SDS011;10999;51.332;9.458;2023-02-11T15:32:58;33.00;;;14.35;;
21675;SDS011;10999;51.332;9.458;2023-02-11T15:35:32;34.42;;;16.13;;
21675;SDS011;10999;51.332;9.458;2023-02-11T15:38:01;36.85;;;14.85;;
21675;SDS011;10999;51.332;9.458;2023-02-11T15:40:30;35.28;;;15.13;;
21675;SDS011;10999;51.332;9.458;2023-02-11T15:45:27;35.88;;;15.07;;
21675;SDS011;10999;51.332;9.458;2023-02-11T15:50:40;30.60;;;13.85;;
21675;SDS011;10999;51.332;9.458;2023-02-11T15:55:48;32.00;;;13.82;;
21675;SDS011;10999;51.332;9.458;2023-02-11T15:58:16;32.80;;;13.48;;
21675;SDS011;10999;51.332;9.458;2023-02-11T16:00:44;32.33;;;12.95;;
21675;SDS011;10999;51.332;9.458;2023-02-11T16:03:18;32.42;;;14.27;;
21675;SDS011;10999;51.332;9.458;2023-02-11T16:05:50;32.85;;;15.35;;
21675;SDS011;10999;51.332;9.458;2023-02-11T16:08:24;32.78;;;15.02;;
21675;SDS011;10999;51.332;9.458;2023-02-11T16:10:55;36.33;;;15.00;;
21675;SDS011;10999;51.332;9.458;2023-02-11T16:13:28;36.67;;;16.92;;
21675;SDS011;10999;51.332;9.458;2023-02-11T16:15:59;33.80;;;15.65;;
21675;SDS011;10999;51.332;9.458;2023-02-11T16:18:37;32.80;;;13.93;;
21675;SDS011;10999;51.332;9.458;2023-02-11T16:21:07;29.65;;;11.98;;
21675;SDS011;10999;51.332;9.458;2023-02-11T16:23:41;29.13;;;10.65;;
21675;SDS011;10999;51.332;9.458;2023-02-11T16:26:31;28.67;;;10.95;;
21675;SDS011;10999;51.332;9.458;2023-02-11T16:29:10;31.17;;;10.27;;
21675;SDS011;10999;51.332;9.458;2023-02-11T16:31:41;29.48;;;10.07;;
21675;SDS011;10999;51.332;9.458;2023-02-11T16:34:14;25.15;;;9.57;;
21675;SDS011;10999;51.332;9.458;2023-02-11T16:36:46;24.13;;;9.57;;
21675;SDS011;10999;51.332;9.458;2023-02-11T16:39:13;25.85;;;9.77;;
21675;SDS011;10999;51.332;9.458;2023-02-11T16:41:41;31.25;;;10.38;;
21675;SDS011;10999;51.332;9.458;2023-02-11T16:44:08;24.20;;;9.35;;
21675;SDS011;10999;51.332;9.458;2023-02-11T16:46:35;29.02;;;10.35;;
21675;SDS011;10999;51.332;9.458;2023-02-11T16:49:45;28.27;;;10.55;;
21675;SDS011;10999;51.332;9.458;2023-02-11T16:51:54;25.73;;;8.95;;
21675;SDS011;10999;51.332;9.458;2023-02-11T16:54:23;25.23;;;9.27;;
21675;SDS011;10999;51.332;9.458;2023-02-11T16:56:50;25.95;;;9.05;;
21675;SDS011;10999;51.332;9.458;2023-02-11T16:59:17;24.83;;;10.00;;
21675;SDS011;10999;51.332;9.458;2023-02-11T17:01:43;29.65;;;9.07;;
21675;SDS011;10999;51.332;9.458;2023-02-11T17:04:16;29.95;;;9.20;;